Laguna de Pozuelos, Argentina
Current Conditions -  °F | °C
As of 8:00 PM on Friday 31 Oct 2014 (Local Time) from SLTJ Reporting Station
Broken Clouds Broken Clouds  
Wind Chill: 64°   Ceiling: 20000
Heat Index: 64°   Visibility: 6mi
Dew Point: 63°   Wind: 0mph
Humidity: 94%   Direction: NA
Pressure: 29.97"   Gusts: NA
Location:  22.37°S, 66.02°W
Report Text: SLTJ 312300Z 00000KT 9999 SCT036 FEW040CB SCT100 BKN200 18/17 Q1015
Loading
Personal Weather Stations






























Interactive Weather Map New forecast layout! Learn more

10-Day Weather Forecast

Advertisements
Track Severe Weather on mobile